sensor_id;sensor_type;location;lat;lon;timestamp;temperature;humidity
4223;DHT22;2125;51.436;14.138;2023-02-11T00:00:16;1.30;87.50
4223;DHT22;2125;51.436;14.138;2023-02-11T00:02:43;1.40;87.40
4223;DHT22;2125;51.436;14.138;2023-02-11T00:05:09;1.40;87.20
4223;DHT22;2125;51.436;14.138;2023-02-11T00:07:37;1.40;87.20
4223;DHT22;2125;51.436;14.138;2023-02-11T00:10:04;1.40;87.20
4223;DHT22;2125;51.436;14.138;2023-02-11T00:12:32;1.40;87.20
4223;DHT22;2125;51.436;14.138;2023-02-11T00:14:58;1.40;87.20
4223;DHT22;2125;51.436;14.138;2023-02-11T00:17:26;1.30;87.20
4223;DHT22;2125;51.436;14.138;2023-02-11T00:19:53;1.30;87.40
4223;DHT22;2125;51.436;14.138;2023-02-11T00:22:20;1.30;87.40
4223;DHT22;2125;51.436;14.138;2023-02-11T00:24:46;1.30;87.40
4223;DHT22;2125;51.436;14.138;2023-02-11T00:27:13;1.30;87.40
4223;DHT22;2125;51.436;14.138;2023-02-11T00:29:39;1.30;87.40
4223;DHT22;2125;51.436;14.138;2023-02-11T00:32:08;1.40;87.50
4223;DHT22;2125;51.436;14.138;2023-02-11T00:34:36;1.40;87.50
4223;DHT22;2125;51.436;14.138;2023-02-11T00:37:03;1.40;87.40
4223;DHT22;2125;51.436;14.138;2023-02-11T00:39:30;1.40;87.40
4223;DHT22;2125;51.436;14.138;2023-02-11T00:41:57;1.40;87.40
4223;DHT22;2125;51.436;14.138;2023-02-11T00:44:24;1.40;87.40
4223;DHT22;2125;51.436;14.138;2023-02-11T00:46:51;1.40;87.40
4223;DHT22;2125;51.436;14.138;2023-02-11T00:49:17;1.40;87.40
4223;DHT22;2125;51.436;14.138;2023-02-11T00:51:45;1.40;87.50
4223;DHT22;2125;51.436;14.138;2023-02-11T00:54:12;1.40;87.50
4223;DHT22;2125;51.436;14.138;2023-02-11T00:56:38;1.40;87.50
4223;DHT22;2125;51.436;14.138;2023-02-11T00:59:05;1.40;87.50
4223;DHT22;2125;51.436;14.138;2023-02-11T01:01:32;1.40;87.50
4223;DHT22;2125;51.436;14.138;2023-02-11T01:03:58;1.40;87.50
4223;DHT22;2125;51.436;14.138;2023-02-11T01:06:25;1.40;87.50
4223;DHT22;2125;51.436;14.138;2023-02-11T01:08:53;1.40;87.60
4223;DHT22;2125;51.436;14.138;2023-02-11T01:11:20;1.40;87.60
4223;DHT22;2125;51.436;14.138;2023-02-11T01:13:48;1.40;87.60
4223;DHT22;2125;51.436;14.138;2023-02-11T01:16:16;1.40;87.70
4223;DHT22;2125;51.436;14.138;2023-02-11T01:18:43;1.50;87.70
4223;DHT22;2125;51.436;14.138;2023-02-11T01:21:10;1.40;87.60
4223;DHT22;2125;51.436;14.138;2023-02-11T01:23:37;1.50;87.70
4223;DHT22;2125;51.436;14.138;2023-02-11T01:26:05;1.50;87.70
4223;DHT22;2125;51.436;14.138;2023-02-11T01:28:32;1.40;87.70
4223;DHT22;2125;51.436;14.138;2023-02-11T01:30:59;1.40;87.70
4223;DHT22;2125;51.436;14.138;2023-02-11T01:33:26;1.40;87.70
4223;DHT22;2125;51.436;14.138;2023-02-11T01:35:52;1.40;87.80
4223;DHT22;2125;51.436;14.138;2023-02-11T01:38:20;1.50;87.90
4223;DHT22;2125;51.436;14.138;2023-02-11T01:40:49;1.50;87.90
4223;DHT22;2125;51.436;14.138;2023-02-11T01:43:18;1.60;87.90
4223;DHT22;2125;51.436;14.138;2023-02-11T01:48:41;1.80;87.70
4223;DHT22;2125;51.436;14.138;2023-02-11T01:51:12;1.80;87.60
4223;DHT22;2125;51.436;14.138;2023-02-11T01:53:39;1.80;87.60
4223;DHT22;2125;51.436;14.138;2023-02-11T01:56:26;1.80;87.70
4223;DHT22;2125;51.436;14.138;2023-02-11T01:59:16;1.90;87.60
4223;DHT22;2125;51.436;14.138;2023-02-11T02:01:47;1.90;87.70
4223;DHT22;2125;51.436;14.138;2023-02-11T02:04:18;2.00;87.60
4223;DHT22;2125;51.436;14.138;2023-02-11T02:06:48;2.00;87.60
4223;DHT22;2125;51.436;14.138;2023-02-11T02:09:19;2.10;87.60
4223;DHT22;2125;51.436;14.138;2023-02-11T02:11:47;2.20;87.60
4223;DHT22;2125;51.436;14.138;2023-02-11T02:14:15;2.30;87.50
4223;DHT22;2125;51.436;14.138;2023-02-11T02:16:42;2.30;87.30
4223;DHT22;2125;51.436;14.138;2023-02-11T02:19:30;2.40;87.30
4223;DHT22;2125;51.436;14.138;2023-02-11T02:22:38;2.40;87.20
4223;DHT22;2125;51.436;14.138;2023-02-11T02:25:33;2.40;87.20
4223;DHT22;2125;51.436;14.138;2023-02-11T02:28:10;2.40;87.20
4223;DHT22;2125;51.436;14.138;2023-02-11T02:31:05;2.50;87.30
4223;DHT22;2125;51.436;14.138;2023-02-11T02:33:44;2.60;87.20
4223;DHT22;2125;51.436;14.138;2023-02-11T02:36:20;2.60;87.10
4223;DHT22;2125;51.436;14.138;2023-02-11T02:38:52;2.60;87.10
4223;DHT22;2125;51.436;14.138;2023-02-11T02:41:22;2.60;87.10
4223;DHT22;2125;51.436;14.138;2023-02-11T02:43:50;2.60;87.00
4223;DHT22;2125;51.436;14.138;2023-02-11T02:46:21;2.60;87.00
4223;DHT22;2125;51.436;14.138;2023-02-11T02:48:50;2.70;87.00
4223;DHT22;2125;51.436;14.138;2023-02-11T02:51:38;2.70;87.00
4223;DHT22;2125;51.436;14.138;2023-02-11T02:54:30;2.70;87.00
4223;DHT22;2125;51.436;14.138;2023-02-11T02:57:08;2.70;86.80
4223;DHT22;2125;51.436;14.138;2023-02-11T02:59:44;2.80;86.90
4223;DHT22;2125;51.436;14.138;2023-02-11T03:02:19;2.70;86.90
4223;DHT22;2125;51.436;14.138;2023-02-11T03:04:54;2.80;86.90
4223;DHT22;2125;51.436;14.138;2023-02-11T03:07:29;2.80;87.00
4223;DHT22;2125;51.436;14.138;2023-02-11T03:10:08;2.80;87.00
4223;DHT22;2125;51.436;14.138;2023-02-11T03:12:36;2.80;86.90
4223;DHT22;2125;51.436;14.138;2023-02-11T03:15:06;2.90;86.90
4223;DHT22;2125;51.436;14.138;2023-02-11T03:17:34;2.90;86.80
4223;DHT22;2125;51.436;14.138;2023-02-11T03:20:04;3.00;86.70
4223;DHT22;2125;51.436;14.138;2023-02-11T03:22:34;3.00;86.70
4223;DHT22;2125;51.436;14.138;2023-02-11T03:25:02;3.10;86.50
4223;DHT22;2125;51.436;14.138;2023-02-11T03:27:33;3.10;86.50
4223;DHT22;2125;51.436;14.138;2023-02-11T03:30:07;3.10;86.40
4223;DHT22;2125;51.436;14.138;2023-02-11T03:32:38;3.10;86.30
4223;DHT22;2125;51.436;14.138;2023-02-11T03:35:12;3.10;86.40
4223;DHT22;2125;51.436;14.138;2023-02-11T03:37:44;3.20;86.40
4223;DHT22;2125;51.436;14.138;2023-02-11T03:40:18;3.20;86.20
4223;DHT22;2125;51.436;14.138;2023-02-11T03:42:48;3.20;86.10
4223;DHT22;2125;51.436;14.138;2023-02-11T03:45:19;3.20;86.10
4223;DHT22;2125;51.436;14.138;2023-02-11T03:47:49;3.20;86.10
4223;DHT22;2125;51.436;14.138;2023-02-11T03:50:20;3.30;86.10
4223;DHT22;2125;51.436;14.138;2023-02-11T03:52:48;3.30;86.10
4223;DHT22;2125;51.436;14.138;2023-02-11T03:55:18;3.30;86.10
4223;DHT22;2125;51.436;14.138;2023-02-11T03:57:45;3.30;86.20
4223;DHT22;2125;51.436;14.138;2023-02-11T04:00:13;3.30;86.10
4223;DHT22;2125;51.436;14.138;2023-02-11T04:02:41;3.30;86.10
4223;DHT22;2125;51.436;14.138;2023-02-11T04:05:10;3.30;86.20
4223;DHT22;2125;51.436;14.138;2023-02-11T04:07:38;3.30;86.10
4223;DHT22;2125;51.436;14.138;2023-02-11T04:10:05;3.40;86.10
4223;DHT22;2125;51.436;14.138;2023-02-11T04:12:32;3.40;86.20
4223;DHT22;2125;51.436;14.138;2023-02-11T04:14:59;3.40;86.20
4223;DHT22;2125;51.436;14.138;2023-02-11T04:17:25;3.40;86.20
4223;DHT22;2125;51.436;14.138;2023-02-11T04:19:52;3.40;86.20
4223;DHT22;2125;51.436;14.138;2023-02-11T04:22:18;3.40;86.30
4223;DHT22;2125;51.436;14.138;2023-02-11T04:24:46;3.40;86.30
4223;DHT22;2125;51.436;14.138;2023-02-11T04:27:13;3.40;86.40
4223;DHT22;2125;51.436;14.138;2023-02-11T04:29:39;3.40;86.40
4223;DHT22;2125;51.436;14.138;2023-02-11T04:32:06;3.40;86.40
4223;DHT22;2125;51.436;14.138;2023-02-11T04:34:33;3.50;86.30
4223;DHT22;2125;51.436;14.138;2023-02-11T04:36:59;3.50;86.30
4223;DHT22;2125;51.436;14.138;2023-02-11T04:39:26;3.50;86.40
4223;DHT22;2125;51.436;14.138;2023-02-11T04:41:54;3.50;86.40
4223;DHT22;2125;51.436;14.138;2023-02-11T04:44:20;3.50;86.40
4223;DHT22;2125;51.436;14.138;2023-02-11T04:46:47;3.50;86.50
4223;DHT22;2125;51.436;14.138;2023-02-11T04:49:14;3.50;86.70
4223;DHT22;2125;51.436;14.138;2023-02-11T04:51:42;3.50;86.90
4223;DHT22;2125;51.436;14.138;2023-02-11T04:54:09;3.50;86.80
4223;DHT22;2125;51.436;14.138;2023-02-11T04:56:36;3.50;87.00
4223;DHT22;2125;51.436;14.138;2023-02-11T04:59:04;3.50;87.10
4223;DHT22;2125;51.436;14.138;2023-02-11T05:01:32;3.50;87.20
4223;DHT22;2125;51.436;14.138;2023-02-11T05:03:58;3.50;87.30
4223;DHT22;2125;51.436;14.138;2023-02-11T05:06:25;3.60;87.30
4223;DHT22;2125;51.436;14.138;2023-02-11T05:08:51;3.60;87.40
4223;DHT22;2125;51.436;14.138;2023-02-11T05:11:20;3.60;87.50
4223;DHT22;2125;51.436;14.138;2023-02-11T05:13:47;3.60;87.60
4223;DHT22;2125;51.436;14.138;2023-02-11T05:16:15;3.60;87.60
4223;DHT22;2125;51.436;14.138;2023-02-11T05:18:43;3.60;87.70
4223;DHT22;2125;51.436;14.138;2023-02-11T05:21:12;3.50;87.70
4223;DHT22;2125;51.436;14.138;2023-02-11T05:23:39;3.50;87.80
4223;DHT22;2125;51.436;14.138;2023-02-11T05:26:08;3.50;87.80
4223;DHT22;2125;51.436;14.138;2023-02-11T05:28:35;3.50;87.80
4223;DHT22;2125;51.436;14.138;2023-02-11T05:31:01;3.50;87.70
4223;DHT22;2125;51.436;14.138;2023-02-11T05:33:29;3.50;87.80
4223;DHT22;2125;51.436;14.138;2023-02-11T05:35:57;3.40;87.70
4223;DHT22;2125;51.436;14.138;2023-02-11T05:38:24;3.40;87.60
4223;DHT22;2125;51.436;14.138;2023-02-11T05:40:51;3.40;87.70
4223;DHT22;2125;51.436;14.138;2023-02-11T05:43:17;3.40;87.60
4223;DHT22;2125;51.436;14.138;2023-02-11T05:45:44;3.40;87.50
4223;DHT22;2125;51.436;14.138;2023-02-11T05:48:11;3.40;87.50
4223;DHT22;2125;51.436;14.138;2023-02-11T05:50:39;3.40;87.70
4223;DHT22;2125;51.436;14.138;2023-02-11T05:53:06;3.40;87.70
4223;DHT22;2125;51.436;14.138;2023-02-11T05:55:33;3.40;87.60
4223;DHT22;2125;51.436;14.138;2023-02-11T05:57:59;3.40;87.50
4223;DHT22;2125;51.436;14.138;2023-02-11T06:00:26;3.40;87.50
4223;DHT22;2125;51.436;14.138;2023-02-11T06:02:53;3.40;87.50
4223;DHT22;2125;51.436;14.138;2023-02-11T06:05:19;3.40;87.50
4223;DHT22;2125;51.436;14.138;2023-02-11T06:07:47;3.40;87.50
4223;DHT22;2125;51.436;14.138;2023-02-11T06:10:14;3.40;87.50
4223;DHT22;2125;51.436;14.138;2023-02-11T06:12:41;3.40;87.40
4223;DHT22;2125;51.436;14.138;2023-02-11T06:15:08;3.40;87.40
4223;DHT22;2125;51.436;14.138;2023-02-11T06:17:34;3.40;87.50
4223;DHT22;2125;51.436;14.138;2023-02-11T06:20:04;3.40;87.60
4223;DHT22;2125;51.436;14.138;2023-02-11T06:22:31;3.40;87.60
4223;DHT22;2125;51.436;14.138;2023-02-11T06:24:59;3.30;87.50
4223;DHT22;2125;51.436;14.138;2023-02-11T06:27:25;3.30;87.60
4223;DHT22;2125;51.436;14.138;2023-02-11T06:29:52;3.30;87.50
4223;DHT22;2125;51.436;14.138;2023-02-11T06:32:19;3.40;87.60
4223;DHT22;2125;51.436;14.138;2023-02-11T06:34:45;3.40;87.50
4223;DHT22;2125;51.436;14.138;2023-02-11T06:37:12;3.40;87.50
4223;DHT22;2125;51.436;14.138;2023-02-11T06:39:38;3.40;87.50
4223;DHT22;2125;51.436;14.138;2023-02-11T06:42:07;3.50;87.50
4223;DHT22;2125;51.436;14.138;2023-02-11T06:44:34;3.50;87.50
4223;DHT22;2125;51.436;14.138;2023-02-11T06:47:01;3.50;87.50
4223;DHT22;2125;51.436;14.138;2023-02-11T06:49:27;3.50;87.50
4223;DHT22;2125;51.436;14.138;2023-02-11T06:51:54;3.50;87.50
4223;DHT22;2125;51.436;14.138;2023-02-11T06:54:21;3.50;87.60
4223;DHT22;2125;51.436;14.138;2023-02-11T06:56:47;3.60;87.60
4223;DHT22;2125;51.436;14.138;2023-02-11T06:59:16;3.60;87.50
4223;DHT22;2125;51.436;14.138;2023-02-11T07:01:43;3.60;87.50
4223;DHT22;2125;51.436;14.138;2023-02-11T07:04:09;3.60;87.60
4223;DHT22;2125;51.436;14.138;2023-02-11T07:06:36;3.70;87.60
4223;DHT22;2125;51.436;14.138;2023-02-11T07:09:03;3.70;87.60
4223;DHT22;2125;51.436;14.138;2023-02-11T07:11:30;3.80;87.50
4223;DHT22;2125;51.436;14.138;2023-02-11T07:14:00;3.80;87.60
4223;DHT22;2125;51.436;14.138;2023-02-11T07:16:28;3.80;87.50
4223;DHT22;2125;51.436;14.138;2023-02-11T07:18:55;3.80;87.50
4223;DHT22;2125;51.436;14.138;2023-02-11T07:21:22;3.80;87.50
4223;DHT22;2125;51.436;14.138;2023-02-11T07:23:49;3.90;87.50
4223;DHT22;2125;51.436;14.138;2023-02-11T07:26:18;3.80;87.40
4223;DHT22;2125;51.436;14.138;2023-02-11T07:28:45;3.80;87.40
4223;DHT22;2125;51.436;14.138;2023-02-11T07:31:14;3.80;87.30
4223;DHT22;2125;51.436;14.138;2023-02-11T07:33:43;3.80;87.20
4223;DHT22;2125;51.436;14.138;2023-02-11T07:36:13;3.70;87.20
4223;DHT22;2125;51.436;14.138;2023-02-11T07:38:40;3.80;87.30
4223;DHT22;2125;51.436;14.138;2023-02-11T07:41:09;3.80;87.30
4223;DHT22;2125;51.436;14.138;2023-02-11T07:43:38;3.80;87.30
4223;DHT22;2125;51.436;14.138;2023-02-11T07:46:05;3.80;87.40
4223;DHT22;2125;51.436;14.138;2023-02-11T07:48:32;3.80;87.30
4223;DHT22;2125;51.436;14.138;2023-02-11T07:51:06;3.80;87.30
4223;DHT22;2125;51.436;14.138;2023-02-11T07:53:33;3.80;87.30
4223;DHT22;2125;51.436;14.138;2023-02-11T07:56:00;3.80;87.40
4223;DHT22;2125;51.436;14.138;2023-02-11T07:58:27;3.80;87.30
4223;DHT22;2125;51.436;14.138;2023-02-11T08:00:54;3.90;87.40
4223;DHT22;2125;51.436;14.138;2023-02-11T08:03:20;3.90;87.50
4223;DHT22;2125;51.436;14.138;2023-02-11T08:05:47;4.00;87.50
4223;DHT22;2125;51.436;14.138;2023-02-11T08:08:15;4.00;87.50
4223;DHT22;2125;51.436;14.138;2023-02-11T08:10:41;4.00;87.60
4223;DHT22;2125;51.436;14.138;2023-02-11T08:13:08;4.10;87.50
4223;DHT22;2125;51.436;14.138;2023-02-11T08:15:34;4.10;87.50
4223;DHT22;2125;51.436;14.138;2023-02-11T08:18:01;4.10;87.50
4223;DHT22;2125;51.436;14.138;2023-02-11T08:20:28;4.20;87.50
4223;DHT22;2125;51.436;14.138;2023-02-11T08:22:54;4.20;87.60
4223;DHT22;2125;51.436;14.138;2023-02-11T08:25:22;4.20;87.60
4223;DHT22;2125;51.436;14.138;2023-02-11T08:27:49;4.20;87.50
4223;DHT22;2125;51.436;14.138;2023-02-11T08:30:15;4.30;87.50
4223;DHT22;2125;51.436;14.138;2023-02-11T08:32:42;4.30;87.50
4223;DHT22;2125;51.436;14.138;2023-02-11T08:35:09;4.40;87.50
4223;DHT22;2125;51.436;14.138;2023-02-11T08:37:36;4.50;87.40
4223;DHT22;2125;51.436;14.138;2023-02-11T08:40:04;4.60;87.30
4223;DHT22;2125;51.436;14.138;2023-02-11T08:42:32;4.60;87.30
4223;DHT22;2125;51.436;14.138;2023-02-11T08:44:58;4.80;87.10
4223;DHT22;2125;51.436;14.138;2023-02-11T08:47:25;4.80;87.20
4223;DHT22;2125;51.436;14.138;2023-02-11T08:49:51;4.80;87.20
4223;DHT22;2125;51.436;14.138;2023-02-11T08:52:18;4.80;87.10
4223;DHT22;2125;51.436;14.138;2023-02-11T08:54:44;4.70;87.00
4223;DHT22;2125;51.436;14.138;2023-02-11T08:57:11;4.70;87.00
4223;DHT22;2125;51.436;14.138;2023-02-11T08:59:39;4.80;87.10
4223;DHT22;2125;51.436;14.138;2023-02-11T09:02:08;4.80;86.90
4223;DHT22;2125;51.436;14.138;2023-02-11T09:04:35;4.90;87.00
4223;DHT22;2125;51.436;14.138;2023-02-11T09:07:02;4.90;86.80
4223;DHT22;2125;51.436;14.138;2023-02-11T09:09:29;4.90;86.70
4223;DHT22;2125;51.436;14.138;2023-02-11T09:11:55;4.90;86.60
4223;DHT22;2125;51.436;14.138;2023-02-11T09:14:23;5.00;86.80
4223;DHT22;2125;51.436;14.138;2023-02-11T09:16:51;5.00;86.60
4223;DHT22;2125;51.436;14.138;2023-02-11T09:19:18;4.90;86.30
4223;DHT22;2125;51.436;14.138;2023-02-11T09:21:45;4.80;86.40
4223;DHT22;2125;51.436;14.138;2023-02-11T09:24:12;4.80;86.50
4223;DHT22;2125;51.436;14.138;2023-02-11T09:26:40;4.80;86.70
4223;DHT22;2125;51.436;14.138;2023-02-11T09:29:07;4.80;86.80
4223;DHT22;2125;51.436;14.138;2023-02-11T09:31:34;4.80;86.80
4223;DHT22;2125;51.436;14.138;2023-02-11T09:34:04;4.90;86.70
4223;DHT22;2125;51.436;14.138;2023-02-11T09:36:33;4.90;86.70
4223;DHT22;2125;51.436;14.138;2023-02-11T09:39:02;5.00;86.70
4223;DHT22;2125;51.436;14.138;2023-02-11T09:41:40;5.30;86.80
4223;DHT22;2125;51.436;14.138;2023-02-11T09:44:09;5.60;86.40
4223;DHT22;2125;51.436;14.138;2023-02-11T09:46:42;5.50;85.80
4223;DHT22;2125;51.436;14.138;2023-02-11T09:49:18;5.50;86.10
4223;DHT22;2125;51.436;14.138;2023-02-11T09:51:47;5.50;86.00
4223;DHT22;2125;51.436;14.138;2023-02-11T09:54:18;5.50;86.10
4223;DHT22;2125;51.436;14.138;2023-02-11T09:56:46;5.60;85.90
4223;DHT22;2125;51.436;14.138;2023-02-11T09:59:13;5.60;85.70
4223;DHT22;2125;51.436;14.138;2023-02-11T10:01:47;5.70;86.00
4223;DHT22;2125;51.436;14.138;2023-02-11T10:04:23;5.70;85.60
4223;DHT22;2125;51.436;14.138;2023-02-11T10:06:53;5.70;85.70
4223;DHT22;2125;51.436;14.138;2023-02-11T10:09:30;5.70;85.60
4223;DHT22;2125;51.436;14.138;2023-02-11T10:12:14;5.70;85.50
4223;DHT22;2125;51.436;14.138;2023-02-11T10:14:59;5.80;85.60
4223;DHT22;2125;51.436;14.138;2023-02-11T10:17:34;5.90;85.40
4223;DHT22;2125;51.436;14.138;2023-02-11T10:20:22;6.00;85.40
4223;DHT22;2125;51.436;14.138;2023-02-11T10:22:53;6.00;84.70
4223;DHT22;2125;51.436;14.138;2023-02-11T10:25:22;5.90;85.10
4223;DHT22;2125;51.436;14.138;2023-02-11T10:27:56;5.80;85.30
4223;DHT22;2125;51.436;14.138;2023-02-11T10:30:29;5.80;85.40
4223;DHT22;2125;51.436;14.138;2023-02-11T10:33:01;5.80;85.50
4223;DHT22;2125;51.436;14.138;2023-02-11T10:35:30;5.80;85.50
4223;DHT22;2125;51.436;14.138;2023-02-11T10:37:58;6.00;85.70
4223;DHT22;2125;51.436;14.138;2023-02-11T10:40:28;6.20;85.60
4223;DHT22;2125;51.436;14.138;2023-02-11T10:42:57;6.40;84.80
4223;DHT22;2125;51.436;14.138;2023-02-11T10:45:31;6.60;84.60
4223;DHT22;2125;51.436;14.138;2023-02-11T10:47:58;6.60;84.30
4223;DHT22;2125;51.436;14.138;2023-02-11T10:50:26;6.50;84.10
4223;DHT22;2125;51.436;14.138;2023-02-11T10:53:10;6.30;84.50
4223;DHT22;2125;51.436;14.138;2023-02-11T10:55:37;6.30;84.60
4223;DHT22;2125;51.436;14.138;2023-02-11T10:58:04;6.20;84.80
4223;DHT22;2125;51.436;14.138;2023-02-11T11:00:34;6.10;85.00
4223;DHT22;2125;51.436;14.138;2023-02-11T11:03:13;6.00;85.00
4223;DHT22;2125;51.436;14.138;2023-02-11T11:05:46;5.90;85.40
4223;DHT22;2125;51.436;14.138;2023-02-11T11:08:15;5.80;85.40
4223;DHT22;2125;51.436;14.138;2023-02-11T11:10:44;5.80;85.60
4223;DHT22;2125;51.436;14.138;2023-02-11T11:13:24;5.70;85.60
4223;DHT22;2125;51.436;14.138;2023-02-11T11:16:17;5.70;85.80
4223;DHT22;2125;51.436;14.138;2023-02-11T11:18:45;5.70;86.00
4223;DHT22;2125;51.436;14.138;2023-02-11T11:21:14;5.60;86.00
4223;DHT22;2125;51.436;14.138;2023-02-11T11:23:48;5.60;86.10
4223;DHT22;2125;51.436;14.138;2023-02-11T11:26:16;5.60;86.00
4223;DHT22;2125;51.436;14.138;2023-02-11T11:28:51;5.70;86.10
4223;DHT22;2125;51.436;14.138;2023-02-11T11:31:21;5.80;86.10
4223;DHT22;2125;51.436;14.138;2023-02-11T11:33:50;5.80;85.90
4223;DHT22;2125;51.436;14.138;2023-02-11T11:36:20;5.80;85.80
4223;DHT22;2125;51.436;14.138;2023-02-11T11:38:52;5.80;86.00
4223;DHT22;2125;51.436;14.138;2023-02-11T11:41:25;5.80;86.00
4223;DHT22;2125;51.436;14.138;2023-02-11T11:44:11;5.70;86.20
4223;DHT22;2125;51.436;14.138;2023-02-11T11:46:43;5.70;86.30
4223;DHT22;2125;51.436;14.138;2023-02-11T11:49:19;5.70;86.50
4223;DHT22;2125;51.436;14.138;2023-02-11T11:51:53;5.70;86.60
4223;DHT22;2125;51.436;14.138;2023-02-11T11:54:24;5.70;86.70
4223;DHT22;2125;51.436;14.138;2023-02-11T11:56:57;5.70;86.60
4223;DHT22;2125;51.436;14.138;2023-02-11T11:59:26;5.70;86.70
4223;DHT22;2125;51.436;14.138;2023-02-11T12:02:10;5.80;86.80
4223;DHT22;2125;51.436;14.138;2023-02-11T12:04:53;5.80;86.80
4223;DHT22;2125;51.436;14.138;2023-02-11T12:07:32;5.80;86.90
4223;DHT22;2125;51.436;14.138;2023-02-11T12:10:28;5.80;86.80
4223;DHT22;2125;51.436;14.138;2023-02-11T12:13:03;5.70;86.90
4223;DHT22;2125;51.436;14.138;2023-02-11T12:15:37;5.70;87.00
4223;DHT22;2125;51.436;14.138;2023-02-11T12:18:16;5.70;87.10
4223;DHT22;2125;51.436;14.138;2023-02-11T12:21:04;5.80;87.10
4223;DHT22;2125;51.436;14.138;2023-02-11T12:23:41;5.70;87.10
4223;DHT22;2125;51.436;14.138;2023-02-11T12:26:15;5.70;87.20
4223;DHT22;2125;51.436;14.138;2023-02-11T12:28:57;5.70;87.20
4223;DHT22;2125;51.436;14.138;2023-02-11T12:31:36;5.70;87.20
4223;DHT22;2125;51.436;14.138;2023-02-11T12:34:37;5.70;87.20
4223;DHT22;2125;51.436;14.138;2023-02-11T12:37:16;5.70;87.20
4223;DHT22;2125;51.436;14.138;2023-02-11T12:39:49;5.70;87.20
4223;DHT22;2125;51.436;14.138;2023-02-11T12:42:28;5.60;87.20
4223;DHT22;2125;51.436;14.138;2023-02-11T12:45:26;5.70;87.30
4223;DHT22;2125;51.436;14.138;2023-02-11T12:48:06;5.70;87.30
4223;DHT22;2125;51.436;14.138;2023-02-11T12:50:43;5.70;87.30
4223;DHT22;2125;51.436;14.138;2023-02-11T12:53:25;5.70;87.30
4223;DHT22;2125;51.436;14.138;2023-02-11T12:55:57;5.70;87.40
4223;DHT22;2125;51.436;14.138;2023-02-11T12:58:30;5.60;87.40
4223;DHT22;2125;51.436;14.138;2023-02-11T13:01:02;5.60;87.40
4223;DHT22;2125;51.436;14.138;2023-02-11T13:03:36;5.60;87.40
4223;DHT22;2125;51.436;14.138;2023-02-11T13:06:06;5.60;87.40
4223;DHT22;2125;51.436;14.138;2023-02-11T13:08:37;5.60;87.40
4223;DHT22;2125;51.436;14.138;2023-02-11T13:11:09;5.70;87.40
4223;DHT22;2125;51.436;14.138;2023-02-11T13:13:46;5.60;87.30
4223;DHT22;2125;51.436;14.138;2023-02-11T13:16:19;5.60;87.20
4223;DHT22;2125;51.436;14.138;2023-02-11T13:18:50;5.50;87.20
4223;DHT22;2125;51.436;14.138;2023-02-11T13:21:28;5.50;87.10
4223;DHT22;2125;51.436;14.138;2023-02-11T13:24:01;5.50;87.10
4223;DHT22;2125;51.436;14.138;2023-02-11T13:26:39;5.60;87.10
4223;DHT22;2125;51.436;14.138;2023-02-11T13:29:19;5.50;87.10
4223;DHT22;2125;51.436;14.138;2023-02-11T13:31:52;5.60;86.90
4223;DHT22;2125;51.436;14.138;2023-02-11T13:34:23;5.60;86.90
4223;DHT22;2125;51.436;14.138;2023-02-11T13:36:54;5.60;87.00
4223;DHT22;2125;51.436;14.138;2023-02-11T13:39:21;5.70;87.00
4223;DHT22;2125;51.436;14.138;2023-02-11T13:41:48;5.80;86.90
4223;DHT22;2125;51.436;14.138;2023-02-11T13:44:24;5.80;87.00
4223;DHT22;2125;51.436;14.138;2023-02-11T13:46:57;5.80;86.90
4223;DHT22;2125;51.436;14.138;2023-02-11T13:49:28;5.80;86.90
4223;DHT22;2125;51.436;14.138;2023-02-11T13:51:56;5.80;86.80
4223;DHT22;2125;51.436;14.138;2023-02-11T13:54:31;5.80;86.80
4223;DHT22;2125;51.436;14.138;2023-02-11T13:57:22;5.70;86.80
4223;DHT22;2125;51.436;14.138;2023-02-11T13:59:54;5.70;86.70
4223;DHT22;2125;51.436;14.138;2023-02-11T14:02:24;5.70;86.70
4223;DHT22;2125;51.436;14.138;2023-02-11T14:05:26;5.80;86.70
4223;DHT22;2125;51.436;14.138;2023-02-11T14:08:20;5.80;86.70
4223;DHT22;2125;51.436;14.138;2023-02-11T14:11:07;5.80;86.60
4223;DHT22;2125;51.436;14.138;2023-02-11T14:14:01;5.80;86.50
4223;DHT22;2125;51.436;14.138;2023-02-11T14:16:29;5.90;86.50
4223;DHT22;2125;51.436;14.138;2023-02-11T14:18:59;5.90;86.50
4223;DHT22;2125;51.436;14.138;2023-02-11T14:21:35;5.90;86.50
4223;DHT22;2125;51.436;14.138;2023-02-11T14:27:10;5.90;86.20
4223;DHT22;2125;51.436;14.138;2023-02-11T14:29:44;5.90;86.20
4223;DHT22;2125;51.436;14.138;2023-02-11T14:32:29;5.90;86.20
4223;DHT22;2125;51.436;14.138;2023-02-11T14:35:05;5.90;86.10
4223;DHT22;2125;51.436;14.138;2023-02-11T14:37:42;6.00;86.10
4223;DHT22;2125;51.436;14.138;2023-02-11T14:40:23;6.00;86.10
4223;DHT22;2125;51.436;14.138;2023-02-11T14:42:52;6.00;86.10
4223;DHT22;2125;51.436;14.138;2023-02-11T14:45:22;6.00;86.10
4223;DHT22;2125;51.436;14.138;2023-02-11T14:47:57;6.00;86.10
4223;DHT22;2125;51.436;14.138;2023-02-11T14:50:31;6.00;86.00
4223;DHT22;2125;51.436;14.138;2023-02-11T14:53:00;6.00;85.90
4223;DHT22;2125;51.436;14.138;2023-02-11T14:55:30;6.00;85.90
4223;DHT22;2125;51.436;14.138;2023-02-11T14:58:12;6.00;85.80
4223;DHT22;2125;51.436;14.138;2023-02-11T15:00:54;6.00;85.60
4223;DHT22;2125;51.436;14.138;2023-02-11T15:03:27;6.00;85.50
4223;DHT22;2125;51.436;14.138;2023-02-11T15:05:55;6.00;85.30
4223;DHT22;2125;51.436;14.138;2023-02-11T15:08:21;6.00;85.20
4223;DHT22;2125;51.436;14.138;2023-02-11T15:10:48;6.00;85.20
4223;DHT22;2125;51.436;14.138;2023-02-11T15:13:19;6.00;85.00
4223;DHT22;2125;51.436;14.138;2023-02-11T15:15:47;6.00;84.80
4223;DHT22;2125;51.436;14.138;2023-02-11T15:18:18;6.00;84.80
4223;DHT22;2125;51.436;14.138;2023-02-11T15:20:48;6.00;84.70
4223;DHT22;2125;51.436;14.138;2023-02-11T15:23:20;6.00;84.70
4223;DHT22;2125;51.436;14.138;2023-02-11T15:25:47;5.90;84.80
4223;DHT22;2125;51.436;14.138;2023-02-11T15:28:20;5.90;84.80
4223;DHT22;2125;51.436;14.138;2023-02-11T15:30:55;5.90;84.80
4223;DHT22;2125;51.436;14.138;2023-02-11T15:33:22;5.90;84.90
4223;DHT22;2125;51.436;14.138;2023-02-11T15:35:51;5.90;84.80
4223;DHT22;2125;51.436;14.138;2023-02-11T15:38:19;5.90;84.90
4223;DHT22;2125;51.436;14.138;2023-02-11T15:40:53;5.90;84.90
4223;DHT22;2125;51.436;14.138;2023-02-11T15:43:20;5.90;85.00
4223;DHT22;2125;51.436;14.138;2023-02-11T15:45:57;5.90;85.00
4223;DHT22;2125;51.436;14.138;2023-02-11T15:48:31;5.90;85.00
4223;DHT22;2125;51.436;14.138;2023-02-11T15:51:04;5.90;85.00
4223;DHT22;2125;51.436;14.138;2023-02-11T15:53:36;5.90;85.10
4223;DHT22;2125;51.436;14.138;2023-02-11T15:56:10;5.90;85.20
4223;DHT22;2125;51.436;14.138;2023-02-11T15:58:42;5.90;85.30
4223;DHT22;2125;51.436;14.138;2023-02-11T16:01:10;5.90;85.20
4223;DHT22;2125;51.436;14.138;2023-02-11T16:03:37;5.90;85.20
4223;DHT22;2125;51.436;14.138;2023-02-11T16:06:17;5.90;85.10
4223;DHT22;2125;51.436;14.138;2023-02-11T16:08:59;5.90;85.00
4223;DHT22;2125;51.436;14.138;2023-02-11T16:11:28;5.90;84.80
4223;DHT22;2125;51.436;14.138;2023-02-11T16:13:56;5.90;84.50
4223;DHT22;2125;51.436;14.138;2023-02-11T16:16:26;5.90;84.20
4223;DHT22;2125;51.436;14.138;2023-02-11T16:18:56;5.80;84.00
4223;DHT22;2125;51.436;14.138;2023-02-11T16:21:28;5.80;83.70
4223;DHT22;2125;51.436;14.138;2023-02-11T16:23:57;5.70;83.40
4223;DHT22;2125;51.436;14.138;2023-02-11T16:26:28;5.70;83.10
4223;DHT22;2125;51.436;14.138;2023-02-11T16:29:03;5.70;82.80
4223;DHT22;2125;51.436;14.138;2023-02-11T16:31:34;5.70;82.70